sensor_id;sensor_type;location;lat;lon;timestamp;pressure;altitude;pressure_sealevel;temperature;humidity
76132;BME280;64877;50.994;13.650;2022-12-16T00:01:19;98953.56;;;-4.55;78.23
76132;BME280;64877;50.994;13.650;2022-12-16T00:03:50;98951.00;;;-4.56;78.33
76132;BME280;64877;50.994;13.650;2022-12-16T00:06:16;98944.88;;;-4.57;77.84
76132;BME280;64877;50.994;13.650;2022-12-16T00:08:42;98948.38;;;-4.58;78.85
76132;BME280;64877;50.994;13.650;2022-12-16T00:11:08;98946.47;;;-4.51;78.56
76132;BME280;64877;50.994;13.650;2022-12-16T00:13:35;98935.91;;;-4.51;78.77
76132;BME280;64877;50.994;13.650;2022-12-16T00:16:20;98937.78;;;-4.55;79.29
76132;BME280;64877;50.994;13.650;2022-12-16T00:18:46;98934.22;;;-4.54;79.02
76132;BME280;64877;50.994;13.650;2022-12-16T00:21:12;98925.25;;;-4.47;78.82
76132;BME280;64877;50.994;13.650;2022-12-16T00:23:38;98933.78;;;-4.38;78.65
76132;BME280;64877;50.994;13.650;2022-12-16T00:26:06;98931.25;;;-4.42;78.16
76132;BME280;64877;50.994;13.650;2022-12-16T00:28:31;98933.09;;;-4.45;78.56
76132;BME280;64877;50.994;13.650;2022-12-16T00:30:56;98942.84;;;-4.49;78.82
76132;BME280;64877;50.994;13.650;2022-12-16T00:33:24;98938.44;;;-4.47;79.30
76132;BME280;64877;50.994;13.650;2022-12-16T00:35:50;98941.00;;;-4.45;78.84
76132;BME280;64877;50.994;13.650;2022-12-16T00:38:16;98939.22;;;-4.45;77.88
76132;BME280;64877;50.994;13.650;2022-12-16T00:40:42;98936.66;;;-4.46;78.15
76132;BME280;64877;50.994;13.650;2022-12-16T00:43:08;98945.50;;;-4.49;78.78
76132;BME280;64877;50.994;13.650;2022-12-16T00:45:33;98940.81;;;-4.39;78.42
76132;BME280;64877;50.994;13.650;2022-12-16T00:47:59;98938.28;;;-4.42;78.43
76132;BME280;64877;50.994;13.650;2022-12-16T00:50:25;98939.16;;;-4.42;79.19
76132;BME280;64877;50.994;13.650;2022-12-16T00:52:50;98943.28;;;-4.33;78.74
76132;BME280;64877;50.994;13.650;2022-12-16T00:55:16;98937.41;;;-4.43;79.10
76132;BME280;64877;50.994;13.650;2022-12-16T00:57:42;98938.19;;;-4.39;79.26
76132;BME280;64877;50.994;13.650;2022-12-16T01:00:10;98929.22;;;-4.33;79.07
76132;BME280;64877;50.994;13.650;2022-12-16T01:02:41;98935.34;;;-4.31;78.89
76132;BME280;64877;50.994;13.650;2022-12-16T01:05:08;98931.84;;;-4.32;78.79
76132;BME280;64877;50.994;13.650;2022-12-16T01:07:34;98937.13;;;-4.33;78.99
76132;BME280;64877;50.994;13.650;2022-12-16T01:10:00;98930.88;;;-4.29;79.12
76132;BME280;64877;50.994;13.650;2022-12-16T01:12:26;98933.47;;;-4.28;79.43
76132;BME280;64877;50.994;13.650;2022-12-16T01:14:51;98944.16;;;-4.32;79.31
76132;BME280;64877;50.994;13.650;2022-12-16T01:17:16;98951.88;;;-4.26;79.66
76132;BME280;64877;50.994;13.650;2022-12-16T01:19:42;98951.91;;;-4.28;79.68
76132;BME280;64877;50.994;13.650;2022-12-16T01:22:07;98956.25;;;-4.25;79.24
76132;BME280;64877;50.994;13.650;2022-12-16T01:24:33;98952.63;;;-4.23;78.68
76132;BME280;64877;50.994;13.650;2022-12-16T01:26:58;98948.34;;;-4.25;78.38
76132;BME280;64877;50.994;13.650;2022-12-16T01:29:24;98941.28;;;-4.25;78.83
76132;BME280;64877;50.994;13.650;2022-12-16T01:31:49;98944.84;;;-4.26;78.95
76132;BME280;64877;50.994;13.650;2022-12-16T01:34:15;98938.69;;;-4.26;78.64
76132;BME280;64877;50.994;13.650;2022-12-16T01:36:41;98938.66;;;-4.25;79.47
76132;BME280;64877;50.994;13.650;2022-12-16T01:39:08;98940.25;;;-4.19;79.51
76132;BME280;64877;50.994;13.650;2022-12-16T01:41:34;98938.44;;;-4.17;80.77
76132;BME280;64877;50.994;13.650;2022-12-16T01:44:17;98940.97;;;-4.14;79.45
76132;BME280;64877;50.994;13.650;2022-12-16T01:46:44;98941.03;;;-4.16;79.24
76132;BME280;64877;50.994;13.650;2022-12-16T01:49:24;98939.25;;;-4.15;79.38
76132;BME280;64877;50.994;13.650;2022-12-16T01:51:51;98940.22;;;-4.18;79.50
76132;BME280;64877;50.994;13.650;2022-12-16T01:54:25;98934.25;;;-4.24;79.55
76132;BME280;64877;50.994;13.650;2022-12-16T01:56:56;98929.63;;;-4.16;80.22
76132;BME280;64877;50.994;13.650;2022-12-16T01:59:24;98930.41;;;-4.14;79.94
76132;BME280;64877;50.994;13.650;2022-12-16T02:01:52;98923.47;;;-4.17;80.11
76132;BME280;64877;50.994;13.650;2022-12-16T02:04:18;98931.41;;;-4.18;80.08
76132;BME280;64877;50.994;13.650;2022-12-16T02:06:43;98925.16;;;-4.14;80.29
76132;BME280;64877;50.994;13.650;2022-12-16T02:09:11;98925.16;;;-4.14;81.03
76132;BME280;64877;50.994;13.650;2022-12-16T02:18:04;98921.16;;;-3.98;79.65
76132;BME280;64877;50.994;13.650;2022-12-16T02:21:06;98909.56;;;-3.94;78.78
76132;BME280;64877;50.994;13.650;2022-12-16T02:29:35;98908.13;;;-4.04;80.33
76132;BME280;64877;50.994;13.650;2022-12-16T02:37:33;98890.41;;;-3.99;80.04
76132;BME280;64877;50.994;13.650;2022-12-16T02:40:03;98897.66;;;-4.05;80.96
76132;BME280;64877;50.994;13.650;2022-12-16T02:42:39;98894.00;;;-4.01;80.14
76132;BME280;64877;50.994;13.650;2022-12-16T02:45:20;98893.09;;;-4.00;80.65
76132;BME280;64877;50.994;13.650;2022-12-16T02:47:47;98887.03;;;-4.02;80.48
76132;BME280;64877;50.994;13.650;2022-12-16T02:50:25;98890.31;;;-3.96;80.80
76132;BME280;64877;50.994;13.650;2022-12-16T02:52:55;98882.47;;;-3.97;79.71
76132;BME280;64877;50.994;13.650;2022-12-16T02:55:28;98877.94;;;-3.94;80.05
76132;BME280;64877;50.994;13.650;2022-12-16T02:58:14;98879.63;;;-3.91;80.14
76132;BME280;64877;50.994;13.650;2022-12-16T03:00:59;98877.94;;;-3.94;80.54
76132;BME280;64877;50.994;13.650;2022-12-16T03:03:49;98869.13;;;-3.93;80.16
76132;BME280;64877;50.994;13.650;2022-12-16T03:06:19;98871.06;;;-3.98;79.21
76132;BME280;64877;50.994;13.650;2022-12-16T03:08:50;98869.44;;;-4.02;79.68
76132;BME280;64877;50.994;13.650;2022-12-16T03:11:15;98863.88;;;-3.93;79.56
76132;BME280;64877;50.994;13.650;2022-12-16T03:13:47;98868.31;;;-3.95;80.17
76132;BME280;64877;50.994;13.650;2022-12-16T03:16:18;98872.66;;;-3.94;81.18
76132;BME280;64877;50.994;13.650;2022-12-16T03:18:48;98873.06;;;-3.78;80.55
76132;BME280;64877;50.994;13.650;2022-12-16T03:21:17;98868.81;;;-3.83;80.05
76132;BME280;64877;50.994;13.650;2022-12-16T03:24:08;98866.00;;;-3.77;80.16
76132;BME280;64877;50.994;13.650;2022-12-16T03:29:45;98865.16;;;-3.79;79.64
76132;BME280;64877;50.994;13.650;2022-12-16T03:32:21;98861.75;;;-3.81;79.55
76132;BME280;64877;50.994;13.650;2022-12-16T03:35:21;98858.97;;;-3.78;79.45
76132;BME280;64877;50.994;13.650;2022-12-16T03:37:50;98857.19;;;-3.76;79.90
76132;BME280;64877;50.994;13.650;2022-12-16T03:40:18;98870.34;;;-3.76;80.51
76132;BME280;64877;50.994;13.650;2022-12-16T03:42:45;98867.72;;;-3.76;80.31
76132;BME280;64877;50.994;13.650;2022-12-16T03:45:16;98868.53;;;-3.74;80.16
76132;BME280;64877;50.994;13.650;2022-12-16T03:47:48;98877.06;;;-3.66;78.98
76132;BME280;64877;50.994;13.650;2022-12-16T03:50:14;98866.72;;;-3.72;79.87
76132;BME280;64877;50.994;13.650;2022-12-16T03:52:40;98864.97;;;-3.73;81.00
76132;BME280;64877;50.994;13.650;2022-12-16T03:55:05;98875.44;;;-3.70;80.43
76132;BME280;64877;50.994;13.650;2022-12-16T03:57:31;98877.06;;;-3.66;80.30
76132;BME280;64877;50.994;13.650;2022-12-16T03:59:56;98869.94;;;-3.64;80.04
76132;BME280;64877;50.994;13.650;2022-12-16T04:02:21;98868.00;;;-3.59;79.08
76132;BME280;64877;50.994;13.650;2022-12-16T04:04:47;98878.69;;;-3.62;79.46
76132;BME280;64877;50.994;13.650;2022-12-16T04:07:12;98868.16;;;-3.64;79.79
76132;BME280;64877;50.994;13.650;2022-12-16T04:09:51;98878.69;;;-3.62;78.95
76132;BME280;64877;50.994;13.650;2022-12-16T04:12:17;98884.84;;;-3.63;78.84
76132;BME280;64877;50.994;13.650;2022-12-16T04:15:02;98882.13;;;-3.60;80.28
76132;BME280;64877;50.994;13.650;2022-12-16T04:17:45;98882.03;;;-3.57;80.54
76132;BME280;64877;50.994;13.650;2022-12-16T04:20:38;98881.22;;;-3.59;81.09
76132;BME280;64877;50.994;13.650;2022-12-16T04:23:25;98891.75;;;-3.59;81.62
76132;BME280;64877;50.994;13.650;2022-12-16T04:26:10;98890.31;;;-3.68;81.19
76132;BME280;64877;50.994;13.650;2022-12-16T04:28:35;98895.25;;;-3.58;80.98
76132;BME280;64877;50.994;13.650;2022-12-16T04:31:01;98897.03;;;-3.59;80.02
76132;BME280;64877;50.994;13.650;2022-12-16T04:33:26;98891.72;;;-3.57;80.16
76132;BME280;64877;50.994;13.650;2022-12-16T04:36:11;98895.25;;;-3.58;80.48
76132;BME280;64877;50.994;13.650;2022-12-16T04:38:55;98899.53;;;-3.54;80.04
76132;BME280;64877;50.994;13.650;2022-12-16T04:41:38;98895.03;;;-3.51;79.27
76132;BME280;64877;50.994;13.650;2022-12-16T04:44:22;98900.28;;;-3.51;79.37
76132;BME280;64877;50.994;13.650;2022-12-16T04:47:06;98899.59;;;-3.56;79.29
76132;BME280;64877;50.994;13.650;2022-12-16T04:49:50;98904.88;;;-3.56;79.31
76132;BME280;64877;50.994;13.650;2022-12-16T04:52:34;98904.88;;;-3.56;80.17
76132;BME280;64877;50.994;13.650;2022-12-16T04:55:17;98902.84;;;-3.48;80.08
76132;BME280;64877;50.994;13.650;2022-12-16T04:58:02;98901.78;;;-3.42;80.56
76132;BME280;64877;50.994;13.650;2022-12-16T05:00:47;98910.50;;;-3.40;80.65
76132;BME280;64877;50.994;13.650;2022-12-16T05:03:32;98922.03;;;-3.43;80.09
76132;BME280;64877;50.994;13.650;2022-12-16T05:06:16;98922.19;;;-3.49;80.93
76132;BME280;64877;50.994;13.650;2022-12-16T05:09:01;98932.38;;;-3.36;79.88
76132;BME280;64877;50.994;13.650;2022-12-16T05:11:47;98929.72;;;-3.36;80.66
76132;BME280;64877;50.994;13.650;2022-12-16T05:14:31;98934.00;;;-3.32;79.71
76132;BME280;64877;50.994;13.650;2022-12-16T05:17:15;98934.88;;;-3.33;nan
76132;BME280;64877;50.994;13.650;2022-12-16T05:19:59;98924.66;;;-3.43;80.14
76132;BME280;64877;50.994;13.650;2022-12-16T05:22:43;98928.91;;;-3.39;80.41
76132;BME280;64877;50.994;13.650;2022-12-16T05:25:27;98934.94;;;-3.35;80.75
76132;BME280;64877;50.994;13.650;2022-12-16T05:28:11;98932.38;;;-3.36;80.28
76132;BME280;64877;50.994;13.650;2022-12-16T05:30:55;98930.44;;;-3.31;79.78
76132;BME280;64877;50.994;13.650;2022-12-16T05:33:39;98934.59;;;-3.24;80.29
76132;BME280;64877;50.994;13.650;2022-12-16T05:36:23;98938.50;;;-3.36;79.82
76132;BME280;64877;50.994;13.650;2022-12-16T05:39:07;98936.50;;;-3.28;80.51
76132;BME280;64877;50.994;13.650;2022-12-16T05:41:51;98933.66;;;-3.23;78.48
76132;BME280;64877;50.994;13.650;2022-12-16T05:44:35;98930.94;;;-3.20;79.65
76132;BME280;64877;50.994;13.650;2022-12-16T05:47:19;98929.84;;;-3.13;78.90
76132;BME280;64877;50.994;13.650;2022-12-16T05:50:04;98931.00;;;-3.22;78.55
76132;BME280;64877;50.994;13.650;2022-12-16T05:52:53;98935.19;;;-3.16;78.35
76132;BME280;64877;50.994;13.650;2022-12-16T05:55:37;98936.91;;;-3.15;76.76
76132;BME280;64877;50.994;13.650;2022-12-16T05:58:21;98948.34;;;-3.15;75.83
76132;BME280;64877;50.994;13.650;2022-12-16T06:01:05;98947.69;;;-3.21;75.98
76132;BME280;64877;50.994;13.650;2022-12-16T06:03:49;98943.44;;;-3.25;76.52
76132;BME280;64877;50.994;13.650;2022-12-16T06:06:33;98946.63;;;-3.16;77.47
76132;BME280;64877;50.994;13.650;2022-12-16T06:09:17;98956.09;;;-3.10;76.96
76132;BME280;64877;50.994;13.650;2022-12-16T06:12:01;98950.81;;;-3.10;76.52
76132;BME280;64877;50.994;13.650;2022-12-16T06:14:45;98957.88;;;-3.10;77.48
76132;BME280;64877;50.994;13.650;2022-12-16T06:17:29;98960.44;;;-3.07;76.87
76132;BME280;64877;50.994;13.650;2022-12-16T06:20:13;98969.97;;;-3.03;76.57
76132;BME280;64877;50.994;13.650;2022-12-16T06:22:56;98971.66;;;-3.01;76.75
76132;BME280;64877;50.994;13.650;2022-12-16T06:25:41;98977.63;;;-2.96;75.38
76132;BME280;64877;50.994;13.650;2022-12-16T06:28:25;98975.84;;;-2.95;75.27
76132;BME280;64877;50.994;13.650;2022-12-16T06:31:09;98971.72;;;-3.02;74.36
76132;BME280;64877;50.994;13.650;2022-12-16T06:33:53;98978.66;;;-3.00;75.03
76132;BME280;64877;50.994;13.650;2022-12-16T06:36:37;98988.25;;;-2.97;73.95
76132;BME280;64877;50.994;13.650;2022-12-16T06:39:21;98980.44;;;-3.00;74.61
76132;BME280;64877;50.994;13.650;2022-12-16T06:42:05;98987.56;;;-3.02;75.16
76132;BME280;64877;50.994;13.650;2022-12-16T06:44:49;98996.34;;;-3.02;75.06
76132;BME280;64877;50.994;13.650;2022-12-16T06:47:33;98999.78;;;-3.00;75.46
76132;BME280;64877;50.994;13.650;2022-12-16T06:50:17;99009.63;;;-3.05;74.59
76132;BME280;64877;50.994;13.650;2022-12-16T06:53:01;99014.97;;;-3.06;74.00
76132;BME280;64877;50.994;13.650;2022-12-16T06:55:45;99017.66;;;-3.08;73.90
76132;BME280;64877;50.994;13.650;2022-12-16T06:58:29;99029.09;;;-3.07;74.48
76132;BME280;64877;50.994;13.650;2022-12-16T07:01:12;99025.47;;;-3.05;74.37
76132;BME280;64877;50.994;13.650;2022-12-16T07:03:56;99029.97;;;-3.07;74.56
76132;BME280;64877;50.994;13.650;2022-12-16T07:06:40;99032.69;;;-3.10;74.64
76132;BME280;64877;50.994;13.650;2022-12-16T07:09:24;99040.81;;;-3.16;74.22
76132;BME280;64877;50.994;13.650;2022-12-16T07:12:08;99046.28;;;-3.22;74.85
76132;BME280;64877;50.994;13.650;2022-12-16T07:14:53;99047.19;;;-3.23;74.65
76132;BME280;64877;50.994;13.650;2022-12-16T07:17:38;99054.28;;;-3.25;74.89
76132;BME280;64877;50.994;13.650;2022-12-16T07:20:23;99057.59;;;-3.19;75.89
76132;BME280;64877;50.994;13.650;2022-12-16T07:23:07;99063.66;;;-3.15;77.04
76132;BME280;64877;50.994;13.650;2022-12-16T07:25:51;99062.72;;;-3.13;78.05
76132;BME280;64877;50.994;13.650;2022-12-16T07:28:35;99064.47;;;-3.13;75.73
76132;BME280;64877;50.994;13.650;2022-12-16T07:31:18;99075.84;;;-3.11;75.83
76132;BME280;64877;50.994;13.650;2022-12-16T07:34:02;99075.75;;;-3.08;75.61
76132;BME280;64877;50.994;13.650;2022-12-16T07:36:46;99081.13;;;-3.11;75.52
76132;BME280;64877;50.994;13.650;2022-12-16T07:39:30;99082.78;;;-3.08;75.13
76132;BME280;64877;50.994;13.650;2022-12-16T07:42:14;99081.03;;;-3.08;75.55
76132;BME280;64877;50.994;13.650;2022-12-16T07:44:58;99090.84;;;-3.12;75.10
76132;BME280;64877;50.994;13.650;2022-12-16T07:47:49;99104.69;;;-3.05;76.43
76132;BME280;64877;50.994;13.650;2022-12-16T07:50:34;99098.25;;;-2.96;75.91
76132;BME280;64877;50.994;13.650;2022-12-16T07:53:18;99097.47;;;-2.98;76.11
76132;BME280;64877;50.994;13.650;2022-12-16T07:56:02;99097.28;;;-2.94;76.42
76132;BME280;64877;50.994;13.650;2022-12-16T07:58:46;99092.00;;;-2.94;76.32
76132;BME280;64877;50.994;13.650;2022-12-16T08:01:30;99098.19;;;-2.93;76.85
76132;BME280;64877;50.994;13.650;2022-12-16T08:04:14;99103.19;;;-2.86;76.37
76132;BME280;64877;50.994;13.650;2022-12-16T08:06:58;99104.22;;;-2.90;76.85
76132;BME280;64877;50.994;13.650;2022-12-16T08:09:46;99107.84;;;-2.94;77.00
76132;BME280;64877;50.994;13.650;2022-12-16T08:12:40;99106.75;;;-2.87;77.37
76132;BME280;64877;50.994;13.650;2022-12-16T08:15:24;99111.03;;;-2.82;77.15
76132;BME280;64877;50.994;13.650;2022-12-16T08:18:08;99114.56;;;-2.83;76.77
76132;BME280;64877;50.994;13.650;2022-12-16T08:20:52;99113.69;;;-2.84;78.64
76132;BME280;64877;50.994;13.650;2022-12-16T08:23:36;99115.31;;;-2.78;78.44
76132;BME280;64877;50.994;13.650;2022-12-16T08:26:20;99117.94;;;-2.78;76.83
76132;BME280;64877;50.994;13.650;2022-12-16T08:29:04;99109.91;;;-2.75;77.63
76132;BME280;64877;50.994;13.650;2022-12-16T08:31:47;99120.19;;;-2.66;77.18
76132;BME280;64877;50.994;13.650;2022-12-16T08:34:31;99125.47;;;-2.66;77.16
76132;BME280;64877;50.994;13.650;2022-12-16T08:37:15;99126.09;;;-2.58;77.04
76132;BME280;64877;50.994;13.650;2022-12-16T08:39:59;99130.75;;;-2.66;77.13
76132;BME280;64877;50.994;13.650;2022-12-16T08:42:56;99140.34;;;-2.64;77.54
76132;BME280;64877;50.994;13.650;2022-12-16T08:45:41;99137.66;;;-2.62;75.58
76132;BME280;64877;50.994;13.650;2022-12-16T08:48:26;99132.31;;;-2.61;76.58
76132;BME280;64877;50.994;13.650;2022-12-16T08:51:10;99135.94;;;-2.63;76.52
76132;BME280;64877;50.994;13.650;2022-12-16T08:53:54;99140.16;;;-2.57;75.87
76132;BME280;64877;50.994;13.650;2022-12-16T08:56:38;99143.91;;;-2.65;76.35
76132;BME280;64877;50.994;13.650;2022-12-16T08:59:22;99146.41;;;-2.60;76.00
76132;BME280;64877;50.994;13.650;2022-12-16T09:02:07;99153.47;;;-2.61;75.99
76132;BME280;64877;50.994;13.650;2022-12-16T09:04:51;99156.75;;;-2.54;76.17
76132;BME280;64877;50.994;13.650;2022-12-16T09:07:35;99162.94;;;-2.53;76.29
76132;BME280;64877;50.994;13.650;2022-12-16T09:10:19;99159.16;;;-2.46;76.07
76132;BME280;64877;50.994;13.650;2022-12-16T09:13:08;99166.94;;;-2.42;75.28
76132;BME280;64877;50.994;13.650;2022-12-16T09:15:52;99173.16;;;-2.43;75.46
76132;BME280;64877;50.994;13.650;2022-12-16T09:18:38;99174.81;;;-2.40;75.45
76132;BME280;64877;50.994;13.650;2022-12-16T09:21:22;99173.34;;;-2.49;75.53
76132;BME280;64877;50.994;13.650;2022-12-16T09:24:06;99172.44;;;-2.48;75.37
76132;BME280;64877;50.994;13.650;2022-12-16T09:26:50;99176.75;;;-2.45;75.25
76132;BME280;64877;50.994;13.650;2022-12-16T09:29:34;99187.19;;;-2.41;74.95
76132;BME280;64877;50.994;13.650;2022-12-16T09:32:18;99189.72;;;-2.38;75.42
76132;BME280;64877;50.994;13.650;2022-12-16T09:35:02;99187.22;;;-2.42;75.43
76132;BME280;64877;50.994;13.650;2022-12-16T09:37:46;99195.06;;;-2.39;75.54
76132;BME280;64877;50.994;13.650;2022-12-16T09:40:30;99194.75;;;-2.30;75.27
76132;BME280;64877;50.994;13.650;2022-12-16T09:46:14;99201.88;;;-2.32;74.44
76132;BME280;64877;50.994;13.650;2022-12-16T09:52:20;99213.31;;;-2.31;74.37
76132;BME280;64877;50.994;13.650;2022-12-16T09:55:21;99212.09;;;-2.21;74.41
76132;BME280;64877;50.994;13.650;2022-12-16T09:58:08;99219.03;;;-2.17;74.05
76132;BME280;64877;50.994;13.650;2022-12-16T10:00:53;99206.81;;;-2.21;73.94
76132;BME280;64877;50.994;13.650;2022-12-16T10:03:38;99205.34;;;-2.03;73.14
76132;BME280;64877;50.994;13.650;2022-12-16T10:18:20;99218.69;;;-1.82;71.78
76132;BME280;64877;50.994;13.650;2022-12-16T10:21:12;99222.75;;;-1.71;72.37
76132;BME280;64877;50.994;13.650;2022-12-16T10:27:43;99222.31;;;-1.59;71.88
76132;BME280;64877;50.994;13.650;2022-12-16T10:30:28;99226.72;;;-1.60;73.21
76132;BME280;64877;50.994;13.650;2022-12-16T10:33:14;99220.69;;;-1.38;71.98
76132;BME280;64877;50.994;13.650;2022-12-16T10:35:58;99221.97;;;-1.50;71.69
76132;BME280;64877;50.994;13.650;2022-12-16T10:38:56;99227.81;;;-1.40;71.64
76132;BME280;64877;50.994;13.650;2022-12-16T10:41:46;99231.69;;;-1.50;71.60
76132;BME280;64877;50.994;13.650;2022-12-16T10:44:51;99228.41;;;-1.57;72.14
76132;BME280;64877;50.994;13.650;2022-12-16T10:47:37;99236.59;;;-1.63;72.70
76132;BME280;64877;50.994;13.650;2022-12-16T10:50:21;99230.53;;;-1.67;72.68
76132;BME280;64877;50.994;13.650;2022-12-16T10:53:14;99231.91;;;-1.82;72.27
76132;BME280;64877;50.994;13.650;2022-12-16T10:58:52;99228.47;;;-1.84;72.68
76132;BME280;64877;50.994;13.650;2022-12-16T11:01:37;99224.59;;;-1.73;72.70
76132;BME280;64877;50.994;13.650;2022-12-16T11:04:37;99234.31;;;-1.74;72.62
76132;BME280;64877;50.994;13.650;2022-12-16T11:10:41;99245.22;;;-1.83;72.36
76132;BME280;64877;50.994;13.650;2022-12-16T11:13:31;99251.25;;;-1.79;72.61
76132;BME280;64877;50.994;13.650;2022-12-16T11:16:26;99245.47;;;-1.91;72.77
76132;BME280;64877;50.994;13.650;2022-12-16T11:19:37;99243.81;;;-1.95;72.54
76132;BME280;64877;50.994;13.650;2022-12-16T11:22:22;99248.31;;;-1.97;73.25
76132;BME280;64877;50.994;13.650;2022-12-16T11:25:17;99248.31;;;-1.97;73.94
76132;BME280;64877;50.994;13.650;2022-12-16T11:28:11;99248.22;;;-1.94;73.32
76132;BME280;64877;50.994;13.650;2022-12-16T11:30:58;99250.25;;;-2.02;73.29
76132;BME280;64877;50.994;13.650;2022-12-16T11:33:44;99252.63;;;-1.94;73.46
76132;BME280;64877;50.994;13.650;2022-12-16T11:36:29;99247.84;;;-2.10;74.38
76132;BME280;64877;50.994;13.650;2022-12-16T11:39:20;99244.97;;;-2.02;73.75
76132;BME280;64877;50.994;13.650;2022-12-16T11:42:06;99262.56;;;-2.01;73.19
76132;BME280;64877;50.994;13.650;2022-12-16T11:44:58;99270.34;;;-1.96;73.12
76132;BME280;64877;50.994;13.650;2022-12-16T11:47:48;99275.06;;;-2.06;73.92
76132;BME280;64877;50.994;13.650;2022-12-16T11:50:36;99274.25;;;-2.08;73.79
76132;BME280;64877;50.994;13.650;2022-12-16T11:53:48;99280.28;;;-2.03;73.72
76132;BME280;64877;50.994;13.650;2022-12-16T11:56:41;99282.00;;;-2.02;73.37
76132;BME280;64877;50.994;13.650;2022-12-16T11:59:49;99281.28;;;-2.07;73.17
76132;BME280;64877;50.994;13.650;2022-12-16T12:02:47;99288.34;;;-2.08;73.29
76132;BME280;64877;50.994;13.650;2022-12-16T12:05:43;99282.50;;;-2.17;74.35
76132;BME280;64877;50.994;13.650;2022-12-16T12:08:37;99284.41;;;-2.22;74.17
76132;BME280;64877;50.994;13.650;2022-12-16T12:11:35;99289.44;;;-2.15;73.98
76132;BME280;64877;50.994;13.650;2022-12-16T12:17:54;99301.81;;;-2.15;73.91
76132;BME280;64877;50.994;13.650;2022-12-16T12:24:04;99303.88;;;-2.25;74.42
76132;BME280;64877;50.994;13.650;2022-12-16T12:30:05;99300.50;;;-2.28;74.32
76132;BME280;64877;50.994;13.650;2022-12-16T12:36:03;99306.50;;;-2.23;76.43
76132;BME280;64877;50.994;13.650;2022-12-16T12:42:20;99308.75;;;-2.11;74.80
76132;BME280;64877;50.994;13.650;2022-12-16T12:54:18;99316.50;;;-2.35;72.92
76132;BME280;64877;50.994;13.650;2022-12-16T12:57:05;99324.56;;;-2.38;73.70
76132;BME280;64877;50.994;13.650;2022-12-16T13:02:49;99331.84;;;-2.46;73.64
76132;BME280;64877;50.994;13.650;2022-12-16T13:05:38;99338.13;;;-2.50;73.69
76132;BME280;64877;50.994;13.650;2022-12-16T13:08:41;99340.16;;;-2.58;74.31
76132;BME280;64877;50.994;13.650;2022-12-16T13:11:26;99349.28;;;-2.70;74.54
76132;BME280;64877;50.994;13.650;2022-12-16T13:17:13;99361.63;;;-2.70;74.01
76132;BME280;64877;50.994;13.650;2022-12-16T13:19:57;99355.41;;;-2.68;74.27
76132;BME280;64877;50.994;13.650;2022-12-16T13:22:42;99359.78;;;-2.67;74.33
76132;BME280;64877;50.994;13.650;2022-12-16T13:28:28;99367.09;;;-2.76;73.90
76132;BME280;64877;50.994;13.650;2022-12-16T13:31:14;99372.56;;;-2.82;74.59
76132;BME280;64877;50.994;13.650;2022-12-16T13:34:05;99377.75;;;-2.79;74.74
76132;BME280;64877;50.994;13.650;2022-12-16T13:36:53;99374.22;;;-2.78;75.08
76132;BME280;64877;50.994;13.650;2022-12-16T13:39:37;99379.34;;;-2.72;74.73
76132;BME280;64877;50.994;13.650;2022-12-16T13:54:29;99408.53;;;-2.77;74.98
76132;BME280;64877;50.994;13.650;2022-12-16T13:57:17;99412.09;;;-2.78;74.96
76132;BME280;64877;50.994;13.650;2022-12-16T14:00:03;99413.00;;;-2.80;74.51
76132;BME280;64877;50.994;13.650;2022-12-16T14:02:49;99423.63;;;-2.82;74.54
76132;BME280;64877;50.994;13.650;2022-12-16T14:05:36;99427.22;;;-2.84;74.64
76132;BME280;64877;50.994;13.650;2022-12-16T14:08:29;99430.66;;;-2.81;74.81
76132;BME280;64877;50.994;13.650;2022-12-16T14:11:21;99436.28;;;-2.95;74.78
76132;BME280;64877;50.994;13.650;2022-12-16T14:14:13;99445.94;;;-2.92;75.29
76132;BME280;64877;50.994;13.650;2022-12-16T14:17:03;99454.94;;;-3.01;75.98
76132;BME280;64877;50.994;13.650;2022-12-16T14:26:15;99455.94;;;-3.05;74.55
76132;BME280;64877;50.994;13.650;2022-12-16T14:29:00;99463.66;;;-2.97;75.08
76132;BME280;64877;50.994;13.650;2022-12-16T14:31:45;99476.06;;;-3.01;75.09
76132;BME280;64877;50.994;13.650;2022-12-16T14:34:35;99480.53;;;-3.03;74.99
76132;BME280;64877;50.994;13.650;2022-12-16T14:37:34;99477.84;;;-3.01;75.05
76132;BME280;64877;50.994;13.650;2022-12-16T14:40:22;99493.97;;;-3.12;75.16
76132;BME280;64877;50.994;13.650;2022-12-16T14:43:12;99491.34;;;-3.12;74.58
76132;BME280;64877;50.994;13.650;2022-12-16T14:45:56;99498.50;;;-3.17;75.30
76132;BME280;64877;50.994;13.650;2022-12-16T14:48:47;99500.28;;;-3.19;75.13
76132;BME280;64877;50.994;13.650;2022-12-16T14:51:36;99500.16;;;-3.13;74.98
76132;BME280;64877;50.994;13.650;2022-12-16T14:54:35;99501.16;;;-3.19;75.33
76132;BME280;64877;50.994;13.650;2022-12-16T14:57:25;99502.00;;;-3.17;75.10
76132;BME280;64877;50.994;13.650;2022-12-16T15:00:22;99517.06;;;-3.20;75.20
76132;BME280;64877;50.994;13.650;2022-12-16T15:03:18;99511.81;;;-3.23;75.25
76132;BME280;64877;50.994;13.650;2022-12-16T15:06:07;99517.16;;;-3.25;74.90
76132;BME280;64877;50.994;13.650;2022-12-16T15:08:56;99518.78;;;-3.19;75.10
76132;BME280;64877;50.994;13.650;2022-12-16T15:11:45;99530.31;;;-3.23;74.70
76132;BME280;64877;50.994;13.650;2022-12-16T15:14:33;99531.44;;;-3.33;75.36
76132;BME280;64877;50.994;13.650;2022-12-16T15:17:40;99529.78;;;-3.38;74.83
76132;BME280;64877;50.994;13.650;2022-12-16T15:20:26;99539.50;;;-3.40;75.26
76132;BME280;64877;50.994;13.650;2022-12-16T15:23:23;99542.25;;;-3.44;75.40
76132;BME280;64877;50.994;13.650;2022-12-16T15:26:07;99549.41;;;-3.49;76.18
76132;BME280;64877;50.994;13.650;2022-12-16T15:28:52;99551.88;;;-3.42;76.79
76132;BME280;64877;50.994;13.650;2022-12-16T15:31:38;99558.38;;;-3.56;75.80
76132;BME280;64877;50.994;13.650;2022-12-16T15:37:42;99574.69;;;-3.39;75.70
76132;BME280;64877;50.994;13.650;2022-12-16T15:40:29;99570.28;;;-3.39;76.58
76132;BME280;64877;50.994;13.650;2022-12-16T15:46:04;99579.25;;;-3.46;77.55
76132;BME280;64877;50.994;13.650;2022-12-16T15:48:50;99574.06;;;-3.50;76.32
76132;BME280;64877;50.994;13.650;2022-12-16T15:51:47;99578.19;;;-3.39;76.75
76132;BME280;64877;50.994;13.650;2022-12-16T15:54:32;99589.41;;;-3.27;75.57